´╗┐

Indeks požarne ogroženosti za amatersko vremensko postajo

(Podrobnosti so pod tabelo)
Majhna
(0 - 210)
Srednja
(210 - 350)
Visoka
(350 - 490)
Zelo visoka
(490 - 630)
Ekstremna
(630+)

>
Current FWI value = 88.1 (maximum scale = 800)
For more information on the Fire Weather Index, see the end of this page.


Datum Temp. (°C) Hitrost Vetra (km/hr) Dež (mm) RH Dni od zadnjega dežja pwsFWI
20/05/2024 25.5 14.0 0.0 0.51 3 88.1
19/05/2024 23.3 12.0 0.0 0.59 2 76.1
18/05/2024 19.0 6.0 0.0 0.53 1 90.0
17/05/2024 14.9 23.0 31.1 0.60 0 159.4
16/05/2024 13.5 33.0 40.9 0.77 0 214.2
15/05/2024 20.5 24.0 3.1 0.63 0 277.7
14/05/2024 17.7 26.0 0.0 0.68 1 308.4
13/05/2024 22.2 23.0 1.0 0.65 0 222.7
12/05/2024 24.4 22.0 0.0 0.46 4 234.7
11/05/2024 21.3 21.0 0.0 0.46 3 187.2
10/05/2024 20.8 17.0 0.0 0.40 2 158.9
09/05/2024 19.9 22.0 0.0 0.50 1 131.6
08/05/2024 19.9 18.0 8.3 0.69 0 64.6
07/05/2024 12.7 8.0 12.4 0.77 0 81.4
06/05/2024 17.7 20.0 1.0 0.68 0 55.9
05/05/2024 23.3 17.0 0.0 0.69 2 130.0
04/05/2024 18.7 11.0 0.0 0.50 1 185.8
03/05/2024 9.5 4.0 7.8 0.83 0 195.1
02/05/2024 13.0 26.0 17.1 0.70 0 202.3
01/05/2024 23.3 29.0 5.7 0.54 0 240.7
30/04/2024 23.3 26.0 0.0 0.34 3 218.4
29/04/2024 24.4 17.0 0.0 0.39 2 144.7
28/04/2024 19.9 15.0 0.0 0.52 1 55.2
27/04/2024 10.7 12.0 1.6 0.72 0 25.1
26/04/2024 11.5 16.0 0.0 0.52 1 21.8
25/04/2024 9.9 23.0 4.7 0.71 0 33.0
24/04/2024 8.8 31.0 0.5 0.64 0 81.7
23/04/2024 3.1 39.0 25.9 0.79 0 86.7
22/04/2024 11.1 30.0 4.1 0.54 0 74.7
21/04/2024 13.3 24.0 5.7 0.38 0 71.6

CumulusUtils Version 6.23.6 - generated at 21/05/2024 00:30 - © Hans Rottier
Science background here. Prediction: https://www.yourweather.co.uk/
sucontract_SNC